createdAt,value
2022-10-17T00:00:22.803Z,17.87
2022-10-17T00:02:50.647Z,17.93
2022-10-17T00:05:18.524Z,17.93
2022-10-17T00:07:46.265Z,17.96
2022-10-17T00:10:14.318Z,18.10
2022-10-17T00:12:43.416Z,18.13
2022-10-17T00:15:16.146Z,18.11
2022-10-17T00:17:44.020Z,18.13
2022-10-17T00:20:12.969Z,18.23
2022-10-17T00:22:40.726Z,18.20
2022-10-17T00:25:09.296Z,18.20
2022-10-17T00:27:37.556Z,18.24
2022-10-17T00:30:09.055Z,18.26
2022-10-17T00:32:36.833Z,18.33
2022-10-17T00:35:05.741Z,18.27
2022-10-17T00:37:33.716Z,18.23
2022-10-17T00:40:02.077Z,18.21
2022-10-17T00:42:30.399Z,18.21
2022-10-17T00:45:22.744Z,18.17
2022-10-17T00:47:56.033Z,18.26
2022-10-17T00:50:25.208Z,18.34
2022-10-17T00:52:53.051Z,18.30
2022-10-17T00:55:26.273Z,18.37
2022-10-17T00:57:54.281Z,18.31
2022-10-17T01:00:24.868Z,18.27
2022-10-17T01:02:53.138Z,18.27
2022-10-17T01:05:22.978Z,18.30
2022-10-17T01:07:52.829Z,18.24
2022-10-17T01:13:01.663Z,18.14
2022-10-17T01:15:41.760Z,18.18
2022-10-17T01:18:20.349Z,18.23
2022-10-17T01:21:31.423Z,18.29
2022-10-17T01:24:34.411Z,18.29
2022-10-17T01:27:47.531Z,18.27
2022-10-17T01:30:30.368Z,18.21
2022-10-17T01:33:06.422Z,18.13
2022-10-17T01:35:40.712Z,18.07
2022-10-17T01:38:12.103Z,18.06
2022-10-17T01:40:45.072Z,17.99
2022-10-17T01:43:17.451Z,18.11
2022-10-17T01:45:52.364Z,18.18
2022-10-17T01:48:25.458Z,18.29
2022-10-17T01:50:57.829Z,18.29
2022-10-17T01:53:32.616Z,18.29
2022-10-17T01:56:03.102Z,18.31
2022-10-17T01:58:34.991Z,18.34
2022-10-17T02:01:06.124Z,18.41
2022-10-17T02:03:36.263Z,18.36
2022-10-17T02:06:07.130Z,18.38
2022-10-17T02:08:41.905Z,18.40
2022-10-17T02:11:15.259Z,18.37
2022-10-17T02:13:56.924Z,18.40
2022-10-17T02:16:36.769Z,18.37
2022-10-17T02:19:36.634Z,18.29
2022-10-17T02:22:16.864Z,18.17
2022-10-17T02:24:52.921Z,18.09
2022-10-17T02:27:29.260Z,17.99
2022-10-17T02:30:03.407Z,17.94
2022-10-17T02:32:36.382Z,17.94
2022-10-17T02:35:10.765Z,17.87
2022-10-17T02:37:41.200Z,17.82
2022-10-17T02:40:11.599Z,17.79
2022-10-17T02:42:41.786Z,17.78
2022-10-17T02:45:11.059Z,17.72
2022-10-17T02:47:47.114Z,17.78
2022-10-17T02:50:16.537Z,17.75
2022-10-17T02:52:51.964Z,17.76
2022-10-17T02:55:22.916Z,17.76
2022-10-17T02:57:54.604Z,17.79
2022-10-17T03:00:26.014Z,17.85
2022-10-17T03:02:54.968Z,17.79
2022-10-17T03:05:26.099Z,17.83
2022-10-17T03:07:54.749Z,17.83
2022-10-17T03:10:23.165Z,17.93
2022-10-17T03:12:50.907Z,17.93
2022-10-17T03:15:20.437Z,17.92
2022-10-17T03:17:48.235Z,17.94
2022-10-17T03:20:16.018Z,17.94
2022-10-17T03:22:45.099Z,17.96
2022-10-17T03:25:12.830Z,17.99
2022-10-17T03:27:40.584Z,17.99
2022-10-17T03:30:10.900Z,17.92
2022-10-17T03:32:39.785Z,17.93
2022-10-17T03:35:10.193Z,17.92
2022-10-17T03:37:42.004Z,18.00
2022-10-17T03:40:12.121Z,17.97
2022-10-17T03:42:40.448Z,17.94
2022-10-17T03:45:09.347Z,17.96
2022-10-17T03:47:37.330Z,17.89
2022-10-17T03:50:05.912Z,17.86
2022-10-17T03:52:36.435Z,17.90
2022-10-17T03:55:05.377Z,17.90
2022-10-17T03:57:35.667Z,17.82
2022-10-17T04:00:05.213Z,17.82
2022-10-17T04:02:42.125Z,17.86
2022-10-17T04:05:15.024Z,17.83
2022-10-17T04:07:42.799Z,17.78
2022-10-17T04:10:13.051Z,17.80
2022-10-17T04:12:42.179Z,17.76
2022-10-17T04:15:13.244Z,17.79
2022-10-17T04:17:41.264Z,17.80
2022-10-17T04:20:10.977Z,17.85
2022-10-17T04:22:38.822Z,17.85
2022-10-17T04:25:07.926Z,17.89
2022-10-17T04:27:42.844Z,17.80
2022-10-17T04:30:10.899Z,17.85
2022-10-17T04:32:39.421Z,17.87
2022-10-17T04:35:14.363Z,17.87
2022-10-17T04:37:47.025Z,17.92
2022-10-17T04:40:19.021Z,18.00
2022-10-17T04:42:49.221Z,18.00
2022-10-17T04:45:21.104Z,17.97
2022-10-17T04:47:52.520Z,18.03
2022-10-17T04:50:20.420Z,18.07
2022-10-17T04:53:07.656Z,18.11
2022-10-17T04:55:39.362Z,18.00
2022-10-17T04:58:08.569Z,17.97
2022-10-17T05:00:37.003Z,18.03
2022-10-17T05:03:13.295Z,18.04
2022-10-17T05:05:42.330Z,18.04
2022-10-17T05:08:12.587Z,18.03
2022-10-17T05:10:41.516Z,17.94
2022-10-17T05:13:11.548Z,18.01
2022-10-17T05:15:39.538Z,18.03
2022-10-17T05:18:08.109Z,18.00
2022-10-17T05:20:36.999Z,17.99
2022-10-17T05:23:04.920Z,18.11
2022-10-17T05:25:36.992Z,18.00
2022-10-17T05:28:04.755Z,18.03
2022-10-17T05:30:37.484Z,18.04
2022-10-17T05:33:07.387Z,18.04
2022-10-17T05:35:35.131Z,18.06
2022-10-17T05:38:03.035Z,17.99
2022-10-17T05:40:33.332Z,17.99
2022-10-17T05:43:01.139Z,17.94
2022-10-17T05:45:28.960Z,17.96
2022-10-17T05:47:58.912Z,17.97
2022-10-17T05:50:27.240Z,17.90
2022-10-17T05:53:06.181Z,17.90
2022-10-17T05:55:40.042Z,17.90
2022-10-17T05:58:09.771Z,17.90
2022-10-17T06:03:13.687Z,17.92
2022-10-17T06:05:41.503Z,17.94
2022-10-17T06:08:09.325Z,17.94
2022-10-17T06:10:37.951Z,17.93
2022-10-17T06:13:05.955Z,17.97
2022-10-17T06:15:34.212Z,17.94
2022-10-17T06:18:06.642Z,17.90
2022-10-17T06:20:36.011Z,17.96
2022-10-17T06:23:04.478Z,18.00
2022-10-17T06:25:55.033Z,17.99
2022-10-17T06:28:22.839Z,18.01
2022-10-17T06:30:50.718Z,18.09
2022-10-17T06:33:18.486Z,18.14
2022-10-17T06:35:52.499Z,18.10
2022-10-17T06:38:21.044Z,18.16
2022-10-17T06:40:50.969Z,18.34
2022-10-17T06:43:23.149Z,18.47
2022-10-17T06:46:04.263Z,19.11
2022-10-17T06:48:39.236Z,19.20
2022-10-17T06:51:31.508Z,19.16
2022-10-17T06:54:00.047Z,19.11
2022-10-17T06:56:39.639Z,19.05
2022-10-17T06:59:26.469Z,19.15
2022-10-17T07:02:14.531Z,19.30
2022-10-17T07:04:43.409Z,19.40
2022-10-17T07:07:14.803Z,19.52
2022-10-17T07:09:42.500Z,19.54
2022-10-17T07:12:13.118Z,19.71
2022-10-17T07:14:47.300Z,19.84
2022-10-17T07:17:15.169Z,20.01
2022-10-17T07:19:43.680Z,19.93
2022-10-17T07:22:12.391Z,20.26
2022-10-17T07:24:44.788Z,20.57
2022-10-17T07:27:29.885Z,20.94
2022-10-17T07:29:59.067Z,21.28
2022-10-17T07:32:38.577Z,21.51
2022-10-17T07:35:07.710Z,21.69
2022-10-17T07:37:36.285Z,21.38
2022-10-17T07:40:06.587Z,21.47
2022-10-17T07:42:37.131Z,21.61
2022-10-17T07:45:05.882Z,21.95
2022-10-17T07:47:35.721Z,21.96
2022-10-17T07:50:05.273Z,21.96
2022-10-17T07:52:33.128Z,22.13
2022-10-17T07:55:01.016Z,22.01
2022-10-17T07:57:30.193Z,22.02
2022-10-17T07:59:57.960Z,21.55
2022-10-17T08:02:27.621Z,21.88
2022-10-17T08:04:55.710Z,21.61
2022-10-17T08:07:28.403Z,21.26
2022-10-17T08:09:57.508Z,20.97
2022-10-17T08:12:25.968Z,21.10
2022-10-17T08:14:55.116Z,21.47
2022-10-17T08:17:22.878Z,21.65
2022-10-17T08:19:50.666Z,21.62
2022-10-17T08:22:18.394Z,21.22
2022-10-17T08:24:46.366Z,21.55
2022-10-17T08:27:14.330Z,21.78
2022-10-17T08:29:42.281Z,22.37
2022-10-17T08:32:11.352Z,22.29
2022-10-17T08:34:38.964Z,22.13
2022-10-17T08:37:06.780Z,22.32
2022-10-17T08:39:34.577Z,22.29
2022-10-17T08:42:15.277Z,23.12
2022-10-17T08:44:53.707Z,24.16
2022-10-17T08:47:28.839Z,24.81
2022-10-17T08:50:00.755Z,23.93
2022-10-17T08:52:37.579Z,23.08
2022-10-17T08:55:13.534Z,22.35
2022-10-17T08:57:41.327Z,21.88
2022-10-17T09:00:17.990Z,21.57
2022-10-17T09:02:59.394Z,21.28
2022-10-17T09:05:42.548Z,21.14
2022-10-17T09:08:21.734Z,21.10
2022-10-17T09:10:57.908Z,21.00
2022-10-17T09:13:34.045Z,20.93
2022-10-17T09:16:13.904Z,20.80
2022-10-17T09:18:47.117Z,20.79
2022-10-17T09:21:20.729Z,20.73
2022-10-17T09:23:59.437Z,20.68
2022-10-17T09:26:37.535Z,20.62
2022-10-17T09:29:16.850Z,20.52
2022-10-17T09:31:48.268Z,20.51
2022-10-17T09:34:17.738Z,20.45
2022-10-17T09:36:45.512Z,20.44
2022-10-17T09:39:15.587Z,20.72
2022-10-17T09:41:47.141Z,20.62
2022-10-17T09:44:36.122Z,20.59
2022-10-17T09:47:19.395Z,20.62
2022-10-17T09:49:50.273Z,20.57
2022-10-17T09:52:19.986Z,20.55
2022-10-17T09:54:50.185Z,20.46
2022-10-17T09:57:19.829Z,20.48
2022-10-17T09:59:49.492Z,20.34
2022-10-17T10:02:21.325Z,20.38
2022-10-17T10:05:17.164Z,20.32
2022-10-17T10:08:00.333Z,20.34
2022-10-17T10:10:30.126Z,20.31
2022-10-17T10:13:07.268Z,20.29
2022-10-17T10:15:37.765Z,20.38
2022-10-17T10:18:33.179Z,20.35
2022-10-17T10:21:08.439Z,20.38
2022-10-17T10:23:40.009Z,20.35
2022-10-17T10:26:21.503Z,20.29
2022-10-17T10:28:56.564Z,20.31
2022-10-17T10:31:31.343Z,20.34
2022-10-17T10:34:02.186Z,20.42
2022-10-17T10:36:47.895Z,20.49
2022-10-17T10:39:28.886Z,20.52
2022-10-17T10:41:56.732Z,20.53
2022-10-17T10:44:28.239Z,20.53
2022-10-17T10:47:20.514Z,20.53
2022-10-17T10:49:48.776Z,20.65
2022-10-17T10:52:31.186Z,20.66
2022-10-17T10:55:08.058Z,20.73
2022-10-17T10:57:38.723Z,20.86
2022-10-17T11:00:13.938Z,20.97
2022-10-17T11:02:46.973Z,21.17
2022-10-17T11:05:21.757Z,21.26
2022-10-17T11:07:59.506Z,21.31
2022-10-17T11:10:34.633Z,21.43
2022-10-17T11:13:07.510Z,21.55
2022-10-17T11:15:40.430Z,21.67
2022-10-17T11:18:13.191Z,21.58
2022-10-17T11:20:51.599Z,21.41
2022-10-17T11:23:28.914Z,21.38
2022-10-17T11:25:59.977Z,21.28
2022-10-17T11:28:27.781Z,21.31
2022-10-17T11:30:58.892Z,21.23
2022-10-17T11:33:31.558Z,21.17
2022-10-17T11:36:05.311Z,21.22
2022-10-17T11:38:42.948Z,21.17
2022-10-17T11:41:15.110Z,21.26
2022-10-17T11:43:49.357Z,21.16
2022-10-17T11:46:21.705Z,21.22
2022-10-17T11:48:59.637Z,21.34
2022-10-17T11:54:20.260Z,21.22
2022-10-17T11:56:54.865Z,21.10
2022-10-17T12:00:03.419Z,21.08
2022-10-17T12:02:40.055Z,21.06
2022-10-17T12:05:20.377Z,21.08
2022-10-17T12:07:53.593Z,20.96
2022-10-17T12:10:32.516Z,21.03
2022-10-17T12:13:52.801Z,20.99
2022-10-17T12:16:44.798Z,20.90
2022-10-17T12:19:25.438Z,20.85
2022-10-17T12:22:01.334Z,20.83
2022-10-17T12:24:38.130Z,20.85
2022-10-17T12:27:36.039Z,20.82
2022-10-17T12:30:16.004Z,20.79
2022-10-17T12:33:07.408Z,20.75
2022-10-17T12:35:38.306Z,20.68
2022-10-17T12:38:25.280Z,20.79
2022-10-17T12:40:57.938Z,20.80
2022-10-17T12:43:45.454Z,20.82
2022-10-17T12:46:34.745Z,20.71
2022-10-17T12:49:20.622Z,20.62
2022-10-17T12:52:21.620Z,20.61
2022-10-17T12:55:07.164Z,20.59
2022-10-17T12:57:45.050Z,20.62
2022-10-17T13:00:19.100Z,20.52
2022-10-17T13:02:49.118Z,20.48
2022-10-17T13:05:23.190Z,20.48
2022-10-17T13:07:52.897Z,20.48
2022-10-17T13:10:23.775Z,20.46
2022-10-17T13:12:53.655Z,20.44
2022-10-17T13:15:22.190Z,20.53
2022-10-17T13:17:59.364Z,20.45
2022-10-17T13:20:31.605Z,20.48
2022-10-17T13:23:00.290Z,20.52
2022-10-17T13:25:29.038Z,20.55
2022-10-17T13:28:13.534Z,20.53
2022-10-17T13:30:46.979Z,20.45
2022-10-17T13:33:34.320Z,20.42
2022-10-17T13:36:04.295Z,20.48
2022-10-17T13:38:36.633Z,20.48
2022-10-17T13:41:34.113Z,20.42
2022-10-17T13:44:04.049Z,20.49
2022-10-17T13:46:39.025Z,20.51
2022-10-17T13:49:18.865Z,20.52
2022-10-17T13:51:48.950Z,20.53
2022-10-17T13:54:34.025Z,20.48
2022-10-17T13:57:03.318Z,20.45
2022-10-17T13:59:35.742Z,20.45
2022-10-17T14:02:03.602Z,20.35
2022-10-17T14:04:50.296Z,20.25
2022-10-17T14:07:27.882Z,20.21
2022-10-17T14:09:57.282Z,20.21
2022-10-17T14:12:25.119Z,20.18
2022-10-17T14:15:11.242Z,20.17
2022-10-17T14:17:40.892Z,20.12
2022-10-17T14:23:22.820Z,20.08
2022-10-17T14:26:09.608Z,20.14
2022-10-17T14:28:37.682Z,20.15
2022-10-17T14:31:24.896Z,20.11
2022-10-17T14:33:54.387Z,19.98
2022-10-17T14:36:32.810Z,20.01
2022-10-17T14:39:01.924Z,19.94
2022-10-17T14:41:48.318Z,19.88
2022-10-17T14:44:23.301Z,19.85
2022-10-17T14:46:55.836Z,19.80
2022-10-17T14:49:29.168Z,19.69
2022-10-17T14:52:32.482Z,19.62
2022-10-17T14:55:13.190Z,19.53
2022-10-17T14:57:44.134Z,19.54
2022-10-17T15:00:15.996Z,19.45
2022-10-17T15:02:44.578Z,19.32
2022-10-17T15:05:13.649Z,19.24
2022-10-17T15:07:43.706Z,19.13
2022-10-17T15:10:26.090Z,19.11
2022-10-17T15:12:59.243Z,18.99
2022-10-17T15:15:32.930Z,18.94
2022-10-17T15:18:00.773Z,18.88
2022-10-17T15:20:30.492Z,18.72
2022-10-17T15:23:01.221Z,18.64
2022-10-17T15:25:30.463Z,18.51
2022-10-17T15:27:58.998Z,18.40
2022-10-17T15:30:28.539Z,18.24
2022-10-17T15:32:57.043Z,18.21
2022-10-17T15:35:25.286Z,18.13
2022-10-17T15:37:53.211Z,18.16
2022-10-17T15:40:25.154Z,18.17
2022-10-17T15:42:53.138Z,18.10
2022-10-17T15:45:22.569Z,17.99
2022-10-17T15:47:52.782Z,18.01
2022-10-17T15:50:21.735Z,17.92
2022-10-17T15:52:50.940Z,17.87
2022-10-17T15:55:19.479Z,17.92
2022-10-17T15:57:49.863Z,17.80
2022-10-17T16:00:20.340Z,17.76
2022-10-17T16:02:49.281Z,17.75
2022-10-17T16:05:19.691Z,17.72
2022-10-17T16:07:48.353Z,17.75
2022-10-17T16:10:17.181Z,17.73
2022-10-17T16:12:45.212Z,17.68
2022-10-17T16:15:16.566Z,17.63
2022-10-17T16:17:44.817Z,17.58
2022-10-17T16:20:13.659Z,17.55
2022-10-17T16:22:42.777Z,17.53
2022-10-17T16:25:19.446Z,17.48
2022-10-17T16:27:48.172Z,17.39
2022-10-17T16:30:17.957Z,17.36
2022-10-17T16:32:45.833Z,17.35
2022-10-17T16:35:17.842Z,17.32
2022-10-17T16:37:45.659Z,17.25
2022-10-17T16:40:13.539Z,17.19
2022-10-17T16:42:41.390Z,17.22
2022-10-17T16:45:09.809Z,17.17
2022-10-17T16:47:38.926Z,17.25
2022-10-17T16:50:06.846Z,17.17
2022-10-17T16:52:34.628Z,17.03
2022-10-17T16:55:02.603Z,17.01
2022-10-17T16:57:30.369Z,16.91
2022-10-17T16:59:58.126Z,16.85
2022-10-17T17:02:25.902Z,16.87
2022-10-17T17:04:54.995Z,16.87
2022-10-17T17:07:24.348Z,16.84
2022-10-17T17:09:53.641Z,16.71
2022-10-17T17:12:21.456Z,16.73
2022-10-17T17:14:49.270Z,16.59
2022-10-17T17:17:30.174Z,16.57
2022-10-17T17:20:07.246Z,16.57
2022-10-17T17:22:35.904Z,16.57
2022-10-17T17:25:03.765Z,16.55
2022-10-17T17:27:31.839Z,16.46
2022-10-17T17:29:59.894Z,16.47
2022-10-17T17:32:27.691Z,16.49
2022-10-17T17:34:55.513Z,16.50
2022-10-17T17:37:24.655Z,16.42
2022-10-17T17:39:52.315Z,16.32
2022-10-17T17:42:20.697Z,16.23
2022-10-17T17:44:49.548Z,16.20
2022-10-17T17:47:17.396Z,16.18
2022-10-17T17:49:45.225Z,16.13
2022-10-17T17:52:13.006Z,16.08
2022-10-17T17:54:42.155Z,16.13
2022-10-17T17:57:09.782Z,16.08
2022-10-17T17:59:39.047Z,16.12
2022-10-17T18:02:06.939Z,16.06
2022-10-17T18:04:34.761Z,16.08
2022-10-17T18:07:02.587Z,16.04
2022-10-17T18:09:30.370Z,15.95
2022-10-17T18:11:59.526Z,15.88
2022-10-17T18:14:27.246Z,15.91
2022-10-17T18:16:55.043Z,15.89
2022-10-17T18:19:23.822Z,15.81
2022-10-17T18:21:51.650Z,15.74
2022-10-17T18:24:19.817Z,15.74
2022-10-17T18:26:47.617Z,15.75
2022-10-17T18:29:17.069Z,15.78
2022-10-17T18:31:44.862Z,15.72
2022-10-17T18:34:12.667Z,15.74
2022-10-17T18:36:40.487Z,15.72
2022-10-17T18:39:08.288Z,15.68
2022-10-17T18:41:36.357Z,15.67
2022-10-17T18:44:04.352Z,15.75
2022-10-17T18:46:40.364Z,15.65
2022-10-17T18:49:09.152Z,15.65
2022-10-17T18:51:37.261Z,15.61
2022-10-17T18:54:05.185Z,15.57
2022-10-17T18:56:33.027Z,15.59
2022-10-17T18:59:00.868Z,15.53
2022-10-17T19:01:28.879Z,15.47
2022-10-17T19:03:59.680Z,15.54
2022-10-17T19:06:31.599Z,15.44
2022-10-17T19:08:59.701Z,15.41
2022-10-17T19:11:28.896Z,15.36
2022-10-17T19:13:57.448Z,15.36
2022-10-17T19:16:27.687Z,15.43
2022-10-17T19:18:57.426Z,15.37
2022-10-17T19:21:26.961Z,15.33
2022-10-17T19:23:57.051Z,15.33
2022-10-17T19:26:27.605Z,15.23
2022-10-17T19:28:55.541Z,15.27
2022-10-17T19:31:27.092Z,15.28
2022-10-17T19:33:56.523Z,15.30
2022-10-17T19:36:28.820Z,15.23
2022-10-17T19:39:02.503Z,15.24
2022-10-17T19:41:30.424Z,15.22
2022-10-17T19:43:58.524Z,15.23
2022-10-17T19:46:27.937Z,15.23
2022-10-17T19:48:56.758Z,15.19
2022-10-17T19:51:26.262Z,15.16
2022-10-17T19:53:55.787Z,15.19
2022-10-17T19:56:26.041Z,15.16
2022-10-17T19:58:55.534Z,15.17
2022-10-17T20:01:25.041Z,15.07
2022-10-17T20:03:53.387Z,15.03
2022-10-17T20:06:21.909Z,15.00
2022-10-17T20:08:50.413Z,14.96
2022-10-17T20:11:20.314Z,14.97
2022-10-17T20:13:50.128Z,14.95
2022-10-17T20:16:21.205Z,14.96
2022-10-17T20:18:49.598Z,14.95
2022-10-17T20:21:19.261Z,14.95
2022-10-17T20:23:47.974Z,14.92
2022-10-17T20:29:10.872Z,14.95
2022-10-17T20:31:39.509Z,14.99
2022-10-17T20:34:07.369Z,15.02
2022-10-17T20:36:37.380Z,15.02
2022-10-17T20:39:07.182Z,15.03
2022-10-17T20:41:35.729Z,14.99
2022-10-17T20:44:04.077Z,15.04
2022-10-17T20:46:37.857Z,15.16
2022-10-17T20:49:12.167Z,15.08
2022-10-17T20:51:40.115Z,14.96
2022-10-17T20:54:08.002Z,14.90
2022-10-17T20:56:36.144Z,14.85
2022-10-17T20:59:05.832Z,14.96
2022-10-17T21:01:36.376Z,14.99
2022-10-17T21:06:53.507Z,15.03
2022-10-17T21:09:21.963Z,15.02
2022-10-17T21:11:51.419Z,15.00
2022-10-17T21:14:19.476Z,14.97
2022-10-17T21:16:49.188Z,15.03
2022-10-17T21:19:17.613Z,15.04
2022-10-17T21:21:47.218Z,15.06
2022-10-17T21:24:17.806Z,15.10
2022-10-17T21:26:46.704Z,15.19
2022-10-17T21:29:15.218Z,15.20
2022-10-17T21:31:44.947Z,15.28
2022-10-17T21:34:15.624Z,15.22
2022-10-17T21:36:44.128Z,15.20
2022-10-17T21:39:12.898Z,15.23
2022-10-17T21:41:41.087Z,15.22
2022-10-17T21:44:14.023Z,15.31
2022-10-17T21:46:42.135Z,15.31
2022-10-17T21:49:11.828Z,15.36
2022-10-17T21:51:41.367Z,15.37
2022-10-17T21:54:09.701Z,15.33
2022-10-17T21:56:37.723Z,15.43
2022-10-17T21:59:06.077Z,15.37
2022-10-17T22:01:35.800Z,15.33
2022-10-17T22:04:06.297Z,15.41
2022-10-17T22:06:40.326Z,15.41
2022-10-17T22:09:13.139Z,15.47
2022-10-17T22:11:41.515Z,15.51
2022-10-17T22:14:15.345Z,15.47
2022-10-17T22:16:44.898Z,15.53
2022-10-17T22:19:14.397Z,15.65
2022-10-17T22:21:42.367Z,15.82
2022-10-17T22:24:13.284Z,15.88
2022-10-17T22:26:41.780Z,15.92
2022-10-17T22:29:10.420Z,15.99
2022-10-17T22:31:39.174Z,15.89
2022-10-17T22:34:07.935Z,15.95
2022-10-17T22:36:36.239Z,15.98
2022-10-17T22:39:04.690Z,16.09
2022-10-17T22:41:34.105Z,16.26
2022-10-17T22:44:02.394Z,16.46
2022-10-17T22:46:30.378Z,16.47
2022-10-17T22:48:58.153Z,16.50
2022-10-17T22:51:26.163Z,16.59
2022-10-17T22:53:53.908Z,16.63
2022-10-17T22:56:22.878Z,16.63
2022-10-17T22:58:52.229Z,16.56
2022-10-17T23:01:21.998Z,16.46
2022-10-17T23:03:50.029Z,16.36
2022-10-17T23:06:17.943Z,16.32
2022-10-17T23:08:46.268Z,16.30
2022-10-17T23:11:14.431Z,16.28
2022-10-17T23:13:42.422Z,16.25
2022-10-17T23:16:11.644Z,16.16
2022-10-17T23:18:39.401Z,16.29
2022-10-17T23:21:07.992Z,16.42
2022-10-17T23:23:35.961Z,16.67
2022-10-17T23:26:08.017Z,16.94
2022-10-17T23:28:36.165Z,17.10
2022-10-17T23:31:17.556Z,17.35
2022-10-17T23:33:46.674Z,17.51
2022-10-17T23:36:14.922Z,16.95
2022-10-17T23:38:43.950Z,16.81
2022-10-17T23:41:12.143Z,16.77
2022-10-17T23:43:40.035Z,16.73
2022-10-17T23:46:08.165Z,16.76
2022-10-17T23:48:38.633Z,16.79
2022-10-17T23:51:07.238Z,17.21
2022-10-17T23:53:34.997Z,17.52
2022-10-17T23:56:02.818Z,17.62
2022-10-17T23:58:30.783Z,17.45
